Time;durP1;ratioP1;P1;durP2;ratioP2;P2;SDS_P1;SDS_P2;PMS_P1;PMS_P2;Temp;Humidity;BMP_temperature;BMP_pressure;BME280_temperature;BME280_humidity;BME280_pressure;Samples;Min_cycle;Max_cycle;Signal;HPM_P1;HPM_P2
2023/05/05 00:01:13;;;;;;;9.93;5.65;;;;;;;;;;5095195;28;20024;-75
2023/05/05 00:03:40;;;;;;;8.32;5.18;;;;;;;;;;5095314;28;20031;-76
2023/05/05 00:06:06;;;;;;;8.55;5.15;;;;;;;;;;5095509;28;20478;-75
2023/05/05 00:08:33;;;;;;;7.55;5.07;;;;;;;;;;5095137;28;20410;-75
2023/05/05 00:10:59;;;;;;;5.82;4.95;;;;;;;;;;5095236;28;20026;-75
2023/05/05 00:13:24;;;;;;;8.50;5.43;;;;;;;;;;5095222;28;20107;-76
2023/05/05 00:15:52;;;;;;;7.28;5.30;;;;;;;;;;5095230;28;20031;-76
2023/05/05 00:18:18;;;;;;;9.70;5.10;;;;;;;;;;5095381;28;20028;-76
2023/05/05 00:20:48;;;;;;;8.27;4.72;;;;;;;;;;5095103;28;20107;-76
2023/05/05 00:23:17;;;;;;;6.88;4.93;;;;;;;;;;5094914;28;20366;-76
2023/05/05 00:25:43;;;;;;;8.00;5.00;;;;;;;;;;5095012;28;20103;-76
2023/05/05 00:28:09;;;;;;;6.38;5.30;;;;;;;;;;5095099;28;20027;-76
2023/05/05 00:30:36;;;;;;;6.97;4.85;;;;;;;;;;5095042;28;20028;-76
2023/05/05 00:33:02;;;;;;;5.72;4.60;;;;;;;;;;5094789;28;20421;-76
2023/05/05 00:35:28;;;;;;;7.82;4.88;;;;;;;;;;5094788;28;20028;-76
2023/05/05 00:37:54;;;;;;;6.20;5.47;;;;;;;;;;5094603;28;20040;-76
2023/05/05 00:40:20;;;;;;;6.32;5.10;;;;;;;;;;5094444;28;20375;-76
2023/05/05 00:42:51;;;;;;;9.02;5.40;;;;;;;;;;5094753;28;20431;-76
2023/05/05 00:45:17;;;;;;;8.55;5.30;;;;;;;;;;5094505;28;20028;-76
2023/05/05 00:47:48;;;;;;;8.93;5.10;;;;;;;;;;5094428;28;20024;-76
2023/05/05 00:50:23;;;;;;;7.45;4.88;;;;;;;;;;5094713;28;20173;-76
2023/05/05 00:52:50;;;;;;;8.18;5.32;;;;;;;;;;5094541;28;20486;-75
2023/05/05 00:55:16;;;;;;;10.48;5.78;;;;;;;;;;5094412;28;20078;-75
2023/05/05 00:57:43;;;;;;;7.55;5.45;;;;;;;;;;5093363;28;20052;-76
2023/05/05 01:00:15;;;;;;;9.02;5.57;;;;;;;;;;5094016;28;20514;-75
2023/05/05 01:02:41;;;;;;;6.20;4.80;;;;;;;;;;5094476;28;20451;-75
2023/05/05 01:05:12;;;;;;;8.98;5.45;;;;;;;;;;5093588;28;20358;-75
2023/05/05 01:07:54;;;;;;;9.82;5.15;;;;;;;;;;5094301;28;20031;-76
2023/05/05 01:10:40;;;;;;;9.90;4.68;;;;;;;;;;5094086;28;20032;-75
2023/05/05 01:13:06;;;;;;;6.82;5.43;;;;;;;;;;5093647;28;20032;-75
2023/05/05 01:15:43;;;;;;;7.90;5.38;;;;;;;;;;5093682;28;20028;-75
2023/05/05 01:18:10;;;;;;;10.32;5.90;;;;;;;;;;5093794;28;20020;-75
2023/05/05 01:20:56;;;;;;;9.73;5.28;;;;;;;;;;5093666;28;20107;-75
2023/05/05 01:23:32;;;;;;;10.02;5.65;;;;;;;;;;5093365;28;20106;-75
2023/05/05 01:26:01;;;;;;;6.50;5.40;;;;;;;;;;5073874;28;20028;-75
2023/05/05 01:28:34;;;;;;;8.40;5.07;;;;;;;;;;5073779;28;20059;-75
2023/05/05 01:31:27;;;;;;;8.27;5.97;;;;;;;;;;5073616;28;20021;-75
2023/05/05 01:33:57;;;;;;;9.32;6.07;;;;;;;;;;5035240;28;20040;-76
2023/05/05 01:36:26;;;;;;;8.77;5.78;;;;;;;;;;5073750;28;20036;-75
2023/05/05 01:38:56;;;;;;;7.13;5.70;;;;;;;;;;5074635;28;20021;-76
2023/05/05 01:41:27;;;;;;;12.20;6.03;;;;;;;;;;5093282;28;20032;-75
2023/05/05 01:43:54;;;;;;;10.60;6.07;;;;;;;;;;5093491;28;20421;-76
2023/05/05 01:46:23;;;;;;;9.07;5.82;;;;;;;;;;5093295;28;20028;-75
2023/05/05 01:48:50;;;;;;;9.90;5.90;;;;;;;;;;5093153;28;20035;-76
2023/05/05 01:51:17;;;;;;;10.57;6.53;;;;;;;;;;5093222;28;20024;-75
2023/05/05 01:53:46;;;;;;;9.00;6.07;;;;;;;;;;5093136;28;20329;-75
2023/05/05 01:56:14;;;;;;;9.60;6.03;;;;;;;;;;5092967;28;20028;-76
2023/05/05 01:58:41;;;;;;;10.27;6.13;;;;;;;;;;5092826;28;20048;-76
2023/05/05 02:01:08;;;;;;;7.97;5.80;;;;;;;;;;5093146;28;20024;-75
2023/05/05 02:03:36;;;;;;;8.80;6.50;;;;;;;;;;5093048;28;20089;-75
2023/05/05 02:06:02;;;;;;;7.03;5.80;;;;;;;;;;5093462;28;20028;-75
2023/05/05 02:08:28;;;;;;;9.90;6.10;;;;;;;;;;5093066;28;20039;-76
2023/05/05 02:10:55;;;;;;;10.35;6.68;;;;;;;;;;5093101;28;20099;-75
2023/05/05 02:13:22;;;;;;;11.30;6.28;;;;;;;;;;5092939;28;20018;-75
2023/05/05 02:15:49;;;;;;;9.98;6.07;;;;;;;;;;5093002;28;20024;-75
2023/05/05 02:18:16;;;;;;;10.75;6.85;;;;;;;;;;5095012;28;20020;-75
2023/05/05 02:20:42;;;;;;;12.35;6.32;;;;;;;;;;5097269;28;20052;-75
2023/05/05 02:23:10;;;;;;;9.75;6.72;;;;;;;;;;5097097;28;20099;-75
2023/05/05 02:25:39;;;;;;;9.07;6.50;;;;;;;;;;5097329;28;20032;-75
2023/05/05 02:28:08;;;;;;;9.52;7.00;;;;;;;;;;5097061;28;20077;-75
2023/05/05 02:30:36;;;;;;;9.18;6.55;;;;;;;;;;5096663;28;20054;-75
2023/05/05 02:33:06;;;;;;;10.55;7.15;;;;;;;;;;5088536;28;20038;-75
2023/05/05 02:35:37;;;;;;;8.68;6.60;;;;;;;;;;5097232;28;20062;-75
2023/05/05 02:38:04;;;;;;;12.70;7.82;;;;;;;;;;5096927;28;20060;-75
2023/05/05 02:40:32;;;;;;;11.80;7.63;;;;;;;;;;5096743;28;20019;-75
2023/05/05 02:42:59;;;;;;;10.48;7.28;;;;;;;;;;5096642;28;20047;-75
2023/05/05 02:45:26;;;;;;;13.70;7.57;;;;;;;;;;5096500;28;20099;-75
2023/05/05 02:47:52;;;;;;;11.15;6.63;;;;;;;;;;5096924;28;20020;-75
2023/05/05 02:50:18;;;;;;;9.30;7.13;;;;;;;;;;5096845;28;20045;-75
2023/05/05 02:52:44;;;;;;;15.85;8.10;;;;;;;;;;5096601;28;20464;-75
2023/05/05 02:55:10;;;;;;;11.35;7.75;;;;;;;;;;5096512;28;20084;-75
2023/05/05 02:57:38;;;;;;;15.25;8.70;;;;;;;;;;5095763;28;20097;-76
2023/05/05 03:00:13;;;;;;;13.80;7.20;;;;;;;;;;5096498;28;20047;-75
2023/05/05 03:02:42;;;;;;;14.48;8.02;;;;;;;;;;5096776;28;20027;-75
2023/05/05 03:05:23;;;;;;;14.35;8.20;;;;;;;;;;5096492;28;20105;-75
2023/05/05 03:07:59;;;;;;;14.43;8.38;;;;;;;;;;5096326;28;20020;-76
2023/05/05 03:10:30;;;;;;;12.75;8.40;;;;;;;;;;5096334;28;20082;-76
2023/05/05 03:12:58;;;;;;;14.15;8.48;;;;;;;;;;5096369;28;20050;-75
2023/05/05 03:15:25;;;;;;;12.38;8.60;;;;;;;;;;5096082;28;20117;-75
2023/05/05 03:17:53;;;;;;;11.48;7.60;;;;;;;;;;5095696;28;20386;-76
2023/05/05 03:20:19;;;;;;;11.63;7.78;;;;;;;;;;5095674;28;20093;-75
2023/05/05 03:22:46;;;;;;;12.68;8.20;;;;;;;;;;5095562;28;20030;-75
2023/05/05 03:25:12;;;;;;;14.50;8.02;;;;;;;;;;5095679;28;20475;-76
2023/05/05 03:27:38;;;;;;;15.80;9.25;;;;;;;;;;5095970;28;20063;-76
2023/05/05 03:30:04;;;;;;;13.30;9.38;;;;;;;;;;5095038;28;20406;-76
2023/05/05 03:32:30;;;;;;;14.50;8.85;;;;;;;;;;5095669;28;20028;-76
2023/05/05 03:34:56;;;;;;;16.02;9.60;;;;;;;;;;5096009;28;20255;-76
2023/05/05 03:37:22;;;;;;;18.60;9.48;;;;;;;;;;5095454;28;20032;-76
2023/05/05 03:39:48;;;;;;;12.93;7.97;;;;;;;;;;5095481;28;20073;-76
2023/05/05 03:42:14;;;;;;;12.65;8.48;;;;;;;;;;5095379;28;20067;-76
2023/05/05 03:44:42;;;;;;;12.20;8.85;;;;;;;;;;5095380;28;20097;-76
2023/05/05 03:47:15;;;;;;;12.70;8.90;;;;;;;;;;5095893;28;20667;-76
2023/05/05 03:49:41;;;;;;;12.15;9.38;;;;;;;;;;5095863;28;20069;-76
2023/05/05 03:52:07;;;;;;;11.45;8.88;;;;;;;;;;5095208;28;20024;-76
2023/05/05 03:54:33;;;;;;;12.88;9.07;;;;;;;;;;5095477;28;20028;-76
2023/05/05 03:56:59;;;;;;;12.85;8.95;;;;;;;;;;5094189;28;20411;-76
2023/05/05 03:59:25;;;;;;;12.93;9.73;;;;;;;;;;5095287;28;20094;-76
2023/05/05 04:01:51;;;;;;;13.43;9.10;;;;;;;;;;5095549;28;20038;-76
2023/05/05 04:04:17;;;;;;;14.95;8.85;;;;;;;;;;5095533;28;20540;-76
2023/05/05 04:06:43;;;;;;;12.30;8.02;;;;;;;;;;5095372;28;20059;-76
2023/05/05 04:09:10;;;;;;;12.60;8.70;;;;;;;;;;5095175;28;20475;-76
2023/05/05 04:11:36;;;;;;;13.23;9.75;;;;;;;;;;5095385;28;20024;-76
2023/05/05 04:14:02;;;;;;;12.60;9.02;;;;;;;;;;5095039;28;20386;-76
2023/05/05 04:16:29;;;;;;;15.05;10.00;;;;;;;;;;5094813;28;20111;-76
2023/05/05 04:18:55;;;;;;;12.90;9.15;;;;;;;;;;5076264;28;20027;-76
2023/05/05 04:21:21;;;;;;;13.88;9.27;;;;;;;;;;5094485;28;20021;-76
2023/05/05 04:23:47;;;;;;;12.63;9.10;;;;;;;;;;5094685;28;20117;-76
2023/05/05 04:26:13;;;;;;;13.05;9.85;;;;;;;;;;5076617;28;20027;-76
2023/05/05 04:28:45;;;;;;;13.85;10.18;;;;;;;;;;5094566;28;20561;-76
2023/05/05 04:31:11;;;;;;;14.65;9.95;;;;;;;;;;5094985;28;20028;-76
2023/05/05 04:33:37;;;;;;;14.02;10.05;;;;;;;;;;5076603;28;20028;-76
2023/05/05 04:36:03;;;;;;;16.77;11.13;;;;;;;;;;5094525;28;20035;-76
2023/05/05 04:38:28;;;;;;;12.80;9.98;;;;;;;;;;5074365;28;20527;-76
2023/05/05 04:40:55;;;;;;;15.65;10.07;;;;;;;;;;5073914;28;20103;-76
2023/05/05 04:43:21;;;;;;;13.93;10.45;;;;;;;;;;5074351;28;20020;-76
2023/05/05 04:45:53;;;;;;;15.13;10.60;;;;;;;;;;5079423;28;20028;-76
2023/05/05 04:48:19;;;;;;;14.65;10.35;;;;;;;;;;5094308;28;20016;-76
2023/05/05 04:50:46;;;;;;;17.73;10.88;;;;;;;;;;5094387;28;20466;-76
2023/05/05 04:53:12;;;;;;;17.83;10.40;;;;;;;;;;5094291;28;20520;-76
2023/05/05 04:55:38;;;;;;;15.48;11.40;;;;;;;;;;5094209;28;20103;-76
2023/05/05 04:58:04;;;;;;;16.35;11.20;;;;;;;;;;5092794;28;20083;-76
2023/05/05 05:00:31;;;;;;;15.57;10.60;;;;;;;;;;5094169;28;20043;-76
2023/05/05 05:02:57;;;;;;;17.13;10.90;;;;;;;;;;5094610;28;20028;-76
2023/05/05 05:05:23;;;;;;;16.13;10.43;;;;;;;;;;5094356;28;20027;-76
2023/05/05 05:07:49;;;;;;;14.43;11.15;;;;;;;;;;5094054;28;20031;-76
2023/05/05 05:10:17;;;;;;;16.35;11.63;;;;;;;;;;5094442;28;20020;-76
2023/05/05 05:12:43;;;;;;;15.68;11.35;;;;;;;;;;5094017;28;20016;-76
2023/05/05 05:15:09;;;;;;;17.33;12.18;;;;;;;;;;5093883;28;20028;-76
2023/05/05 05:17:35;;;;;;;18.25;12.40;;;;;;;;;;5093783;28;20035;-76
2023/05/05 05:20:03;;;;;;;18.20;11.75;;;;;;;;;;5093711;28;20024;-75
2023/05/05 05:22:30;;;;;;;15.70;10.93;;;;;;;;;;5093955;28;20063;-76
2023/05/05 05:24:56;;;;;;;16.17;11.95;;;;;;;;;;5075637;28;20020;-76
2023/05/05 05:27:22;;;;;;;16.27;12.05;;;;;;;;;;5093928;28;20093;-76
2023/05/05 05:29:48;;;;;;;17.98;12.20;;;;;;;;;;5093731;28;20103;-76
2023/05/05 05:32:14;;;;;;;14.88;12.00;;;;;;;;;;5093662;28;20035;-76
2023/05/05 05:34:40;;;;;;;16.27;11.50;;;;;;;;;;5093903;28;20024;-76
2023/05/05 05:37:06;;;;;;;13.40;10.60;;;;;;;;;;5093627;28;20034;-76
2023/05/05 05:39:32;;;;;;;12.68;9.95;;;;;;;;;;5093323;28;20077;-76
2023/05/05 05:41:58;;;;;;;13.27;10.63;;;;;;;;;;5075214;28;20032;-76
2023/05/05 05:44:24;;;;;;;14.15;10.50;;;;;;;;;;5093322;28;20443;-76
2023/05/05 05:46:50;;;;;;;12.65;10.25;;;;;;;;;;5093109;28;20034;-76
2023/05/05 05:49:16;;;;;;;15.13;10.32;;;;;;;;;;5093728;28;20031;-76
2023/05/05 05:51:42;;;;;;;14.57;9.60;;;;;;;;;;5093391;28;20056;-76
2023/05/05 05:54:08;;;;;;;12.82;9.75;;;;;;;;;;5093202;28;20052;-76
2023/05/05 05:56:34;;;;;;;11.30;9.05;;;;;;;;;;5093343;28;20048;-76
2023/05/05 05:59:06;;;;;;;13.50;9.57;;;;;;;;;;5092006;28;20105;-76
2023/05/05 06:01:33;;;;;;;13.23;9.30;;;;;;;;;;5093470;28;20545;-76
2023/05/05 06:03:59;;;;;;;11.05;8.95;;;;;;;;;;5093150;28;20024;-76
2023/05/05 06:06:25;;;;;;;12.38;9.80;;;;;;;;;;5093202;28;20069;-77
2023/05/05 06:08:51;;;;;;;13.88;9.70;;;;;;;;;;5093088;28;20025;-76
2023/05/05 06:11:17;;;;;;;10.30;8.98;;;;;;;;;;5092380;28;20443;-77
2023/05/05 06:13:43;;;;;;;10.00;8.98;;;;;;;;;;5093542;28;20020;-77
2023/05/05 06:16:09;;;;;;;14.02;10.25;;;;;;;;;;5075216;28;20028;-77
2023/05/05 06:18:35;;;;;;;13.82;9.27;;;;;;;;;;5093261;28;20099;-77
2023/05/05 06:21:01;;;;;;;12.40;8.77;;;;;;;;;;5093156;28;20350;-77
2023/05/05 06:23:27;;;;;;;11.55;10.15;;;;;;;;;;5093539;28;20024;-77
2023/05/05 06:25:54;;;;;;;11.73;9.68;;;;;;;;;;5093250;28;20020;-77
2023/05/05 06:28:20;;;;;;;10.90;9.10;;;;;;;;;;5074941;28;20056;-77
2023/05/05 06:30:46;;;;;;;11.88;10.23;;;;;;;;;;5093319;28;20031;-77
2023/05/05 06:33:12;;;;;;;11.52;9.73;;;;;;;;;;5093189;28;20020;-78
2023/05/05 06:35:38;;;;;;;10.57;9.43;;;;;;;;;;5093034;28;20105;-77
2023/05/05 06:38:08;;;;;;;11.50;10.02;;;;;;;;;;5092945;28;20131;-78
2023/05/05 06:40:34;;;;;;;12.35;9.70;;;;;;;;;;5093212;28;20031;-78
2023/05/05 06:43:00;;;;;;;12.45;9.82;;;;;;;;;;5093138;28;20416;-77
2023/05/05 06:45:26;;;;;;;11.73;9.85;;;;;;;;;;5092886;28;20054;-78
2023/05/05 06:47:52;;;;;;;11.75;9.60;;;;;;;;;;5093565;28;20036;-78
2023/05/05 06:50:18;;;;;;;11.45;9.43;;;;;;;;;;5093764;28;20024;-78
2023/05/05 06:52:44;;;;;;;11.60;9.35;;;;;;;;;;5093971;28;20026;-78
2023/05/05 06:55:10;;;;;;;12.95;10.18;;;;;;;;;;5093130;28;20115;-78
2023/05/05 06:57:36;;;;;;;10.90;9.73;;;;;;;;;;5092933;28;20130;-78
2023/05/05 07:00:08;;;;;;;14.85;10.32;;;;;;;;;;5098020;28;20073;-78
2023/05/05 07:02:34;;;;;;;10.30;9.25;;;;;;;;;;5113946;28;20023;-78
2023/05/05 07:05:00;;;;;;;12.10;9.07;;;;;;;;;;5118494;28;20066;-78
2023/05/05 07:07:26;;;;;;;10.68;9.40;;;;;;;;;;5108098;28;20036;-78
2023/05/05 07:09:52;;;;;;;11.18;9.90;;;;;;;;;;5098658;28;20115;-78
2023/05/05 07:12:18;;;;;;;10.65;9.60;;;;;;;;;;5097745;28;20059;-78
2023/05/05 07:14:45;;;;;;;11.88;10.40;;;;;;;;;;5097343;28;20458;-78
2023/05/05 07:17:11;;;;;;;12.30;11.02;;;;;;;;;;5097514;28;20040;-78
2023/05/05 07:19:38;;;;;;;12.20;10.88;;;;;;;;;;5109664;28;20386;-78
2023/05/05 07:22:04;;;;;;;11.55;10.02;;;;;;;;;;5117347;28;20057;-78
2023/05/05 07:24:30;;;;;;;13.00;10.60;;;;;;;;;;5118019;28;20106;-78
2023/05/05 07:26:56;;;;;;;14.23;10.63;;;;;;;;;;5118480;28;20058;-78
2023/05/05 07:29:22;;;;;;;12.10;10.80;;;;;;;;;;5098651;28;20111;-78
2023/05/05 07:31:48;;;;;;;14.90;11.50;;;;;;;;;;5080042;28;20755;-79
2023/05/05 07:34:14;;;;;;;13.48;11.15;;;;;;;;;;5092513;28;20024;-78
2023/05/05 07:36:40;;;;;;;12.85;11.32;;;;;;;;;;5107013;28;20040;-78
2023/05/05 07:39:07;;;;;;;14.27;11.40;;;;;;;;;;5098319;28;20035;-78
2023/05/05 07:41:33;;;;;;;13.40;11.48;;;;;;;;;;5097190;28;20029;-78
2023/05/05 07:44:00;;;;;;;13.45;10.40;;;;;;;;;;5078241;28;20035;-78
2023/05/05 07:46:26;;;;;;;14.15;11.82;;;;;;;;;;5094458;28;20031;-78
2023/05/05 07:48:52;;;;;;;15.18;12.95;;;;;;;;;;5098044;28;20024;-78
2023/05/05 07:51:18;;;;;;;27.08;19.10;;;;;;;;;;5098791;28;20070;-78
2023/05/05 07:53:44;;;;;;;28.63;21.23;;;;;;;;;;5104404;28;20055;-78
2023/05/05 07:56:10;;;;;;;31.45;20.80;;;;;;;;;;5099217;28;20429;-78
2023/05/05 07:58:36;;;;;;;31.65;22.10;;;;;;;;;;5093935;28;20048;-78
2023/05/05 08:01:02;;;;;;;29.40;21.52;;;;;;;;;;5092792;28;20055;-78
2023/05/05 08:03:28;;;;;;;33.42;22.10;;;;;;;;;;5074660;28;20451;-78
2023/05/05 08:05:54;;;;;;;34.50;23.20;;;;;;;;;;5084974;28;20099;-78
2023/05/05 08:08:23;;;;;;;30.70;22.83;;;;;;;;;;5097818;28;20031;-77
2023/05/05 08:10:50;;;;;;;28.05;20.83;;;;;;;;;;5092815;28;20034;-77
2023/05/05 08:13:16;;;;;;;29.88;19.67;;;;;;;;;;5092960;28;20023;-78
2023/05/05 08:15:43;;;;;;;30.33;20.40;;;;;;;;;;5097950;28;20028;-77
2023/05/05 08:18:09;;;;;;;26.65;20.33;;;;;;;;;;5092479;28;20428;-77
2023/05/05 08:20:36;;;;;;;27.48;19.50;;;;;;;;;;5092400;28;20522;-77
2023/05/05 08:23:02;;;;;;;30.60;21.52;;;;;;;;;;5092779;28;20049;-78
2023/05/05 08:25:28;;;;;;;28.35;19.45;;;;;;;;;;5092590;28;20103;-78
2023/05/05 08:27:54;;;;;;;20.10;14.52;;;;;;;;;;5093760;28;20106;-79
2023/05/05 08:30:21;;;;;;;21.17;15.02;;;;;;;;;;5103501;28;20038;-79
2023/05/05 08:32:47;;;;;;;20.52;13.95;;;;;;;;;;5110655;28;20024;-79
2023/05/05 08:35:13;;;;;;;16.75;13.15;;;;;;;;;;5102692;28;20714;-79
2023/05/05 08:37:39;;;;;;;14.50;11.45;;;;;;;;;;5100552;28;20062;-79
2023/05/05 08:40:05;;;;;;;16.38;11.57;;;;;;;;;;5094352;28;20444;-79
2023/05/05 08:42:31;;;;;;;15.13;9.85;;;;;;;;;;5086606;28;20028;-79
2023/05/05 08:44:58;;;;;;;17.35;11.13;;;;;;;;;;5102906;28;20034;-79
2023/05/05 08:47:24;;;;;;;14.60;11.45;;;;;;;;;;5075053;28;20024;-78
2023/05/05 08:49:53;;;;;;;20.23;11.63;;;;;;;;;;5091998;28;20035;-78
2023/05/05 08:52:22;;;;;;;16.27;11.50;;;;;;;;;;5091958;28;20028;-78
2023/05/05 08:55:01;;;;;;;14.55;11.00;;;;;;;;;;5073914;28;20059;-78
2023/05/05 08:57:47;;;;;;;16.08;12.10;;;;;;;;;;5090658;28;20044;-78
2023/05/05 09:00:14;;;;;;;12.95;9.82;;;;;;;;;;5083769;28;20067;-77
2023/05/05 09:02:40;;;;;;;16.40;11.30;;;;;;;;;;5093696;28;20024;-79
2023/05/05 09:05:06;;;;;;;14.65;10.95;;;;;;;;;;5093335;28;20521;-78
2023/05/05 09:07:33;;;;;;;10.93;9.52;;;;;;;;;;5093335;28;20124;-78
2023/05/05 09:09:59;;;;;;;12.45;9.57;;;;;;;;;;5096476;28;20028;-78
2023/05/05 09:12:30;;;;;;;12.95;10.18;;;;;;;;;;5092203;28;20099;-78
2023/05/05 09:14:56;;;;;;;11.18;8.57;;;;;;;;;;5092607;28;20063;-78
2023/05/05 09:17:23;;;;;;;10.32;8.45;;;;;;;;;;5091963;28;20083;-77
2023/05/05 09:19:56;;;;;;;12.88;8.80;;;;;;;;;;5073711;28;20492;-78
2023/05/05 09:22:32;;;;;;;10.60;8.48;;;;;;;;;;5091835;28;20068;-78
2023/05/05 09:24:58;;;;;;;13.40;9.25;;;;;;;;;;5091414;28;20032;-78
2023/05/05 09:27:25;;;;;;;10.45;8.45;;;;;;;;;;5094349;28;20045;-79
2023/05/05 09:29:52;;;;;;;10.50;7.90;;;;;;;;;;5100484;28;20036;-78
2023/05/05 09:32:18;;;;;;;10.57;8.85;;;;;;;;;;5094949;28;20032;-79
2023/05/05 09:34:55;;;;;;;10.43;8.18;;;;;;;;;;5096181;28;20054;-79
2023/05/05 09:37:31;;;;;;;9.18;7.47;;;;;;;;;;5089793;28;20024;-79
2023/05/05 09:39:59;;;;;;;8.85;6.90;;;;;;;;;;5096126;28;20023;-79
2023/05/05 09:42:26;;;;;;;12.18;6.22;;;;;;;;;;5108427;28;20031;-80
2023/05/05 09:44:52;;;;;;;7.22;5.32;;;;;;;;;;5107413;28;20031;-79
2023/05/05 09:47:18;;;;;;;7.22;5.53;;;;;;;;;;5085532;28;20190;-79
2023/05/05 09:49:44;;;;;;;7.63;4.80;;;;;;;;;;5107190;28;20053;-79
2023/05/05 09:52:14;;;;;;;6.75;5.30;;;;;;;;;;5099072;28;20429;-79
2023/05/05 09:54:40;;;;;;;5.28;4.78;;;;;;;;;;5104730;28;20024;-79
2023/05/05 09:57:06;;;;;;;6.43;4.57;;;;;;;;;;5083695;28;20031;-79
2023/05/05 09:59:32;;;;;;;5.78;4.65;;;;;;;;;;5102797;28;20401;-78
2023/05/05 10:02:12;;;;;;;6.43;4.30;;;;;;;;;;5102285;28;20035;-78
2023/05/05 10:04:38;;;;;;;5.28;4.03;;;;;;;;;;5100510;28;20027;-79
2023/05/05 10:07:04;;;;;;;6.15;4.43;;;;;;;;;;5104848;28;20024;-79
2023/05/05 10:09:33;;;;;;;7.05;5.35;;;;;;;;;;5110951;28;20610;-80
2023/05/05 10:12:00;;;;;;;6.32;4.60;;;;;;;;;;5104717;28;20107;-79
2023/05/05 10:14:26;;;;;;;4.88;3.60;;;;;;;;;;5096947;28;20024;-78
2023/05/05 10:16:54;;;;;;;4.72;4.00;;;;;;;;;;5097513;28;20028;-79
2023/05/05 10:19:23;;;;;;;4.38;3.97;;;;;;;;;;5097263;28;20073;-79
2023/05/05 10:21:51;;;;;;;6.55;4.97;;;;;;;;;;5100268;28;20028;-78
2023/05/05 10:24:21;;;;;;;6.20;4.80;;;;;;;;;;5107005;28;20041;-78
2023/05/05 10:26:48;;;;;;;7.35;4.93;;;;;;;;;;5092618;28;20482;-78
2023/05/05 10:29:25;;;;;;;7.55;5.95;;;;;;;;;;5093834;28;20036;-78
2023/05/05 10:31:52;;;;;;;6.90;5.43;;;;;;;;;;5094161;28;20036;-78
2023/05/05 10:34:21;;;;;;;5.75;4.88;;;;;;;;;;5102139;28;20036;-78
2023/05/05 10:36:48;;;;;;;7.77;5.43;;;;;;;;;;5112040;28;20031;-78
2023/05/05 10:39:15;;;;;;;7.35;5.80;;;;;;;;;;5107923;28;20100;-78
2023/05/05 10:41:41;;;;;;;7.60;6.35;;;;;;;;;;5099830;28;20089;-78
2023/05/05 10:44:09;;;;;;;9.52;6.85;;;;;;;;;;5095424;28;20478;-78
2023/05/05 10:46:35;;;;;;;8.98;6.82;;;;;;;;;;5094992;28;20478;-78
2023/05/05 10:49:01;;;;;;;9.23;6.70;;;;;;;;;;5097573;28;20532;-78
2023/05/05 10:51:46;;;;;;;7.88;6.18;;;;;;;;;;5095028;28;20024;-78
2023/05/05 10:54:16;;;;;;;8.48;7.03;;;;;;;;;;5103405;28;20028;-77
2023/05/05 10:56:42;;;;;;;9.73;6.70;;;;;;;;;;5094797;28;20139;-77
2023/05/05 10:59:27;;;;;;;7.85;6.82;;;;;;;;;;5098674;28;20514;-77
2023/05/05 11:01:53;;;;;;;9.55;7.25;;;;;;;;;;5102469;28;20475;-77
2023/05/05 11:04:20;;;;;;;8.40;6.45;;;;;;;;;;5100333;28;20030;-77
2023/05/05 11:07:07;;;;;;;9.57;6.82;;;;;;;;;;5085947;28;20503;-77
2023/05/05 11:09:37;;;;;;;8.10;5.93;;;;;;;;;;5080145;28;20047;-77
2023/05/05 11:12:05;;;;;;;8.73;6.00;;;;;;;;;;5099917;28;20098;-77
2023/05/05 11:14:31;;;;;;;6.78;5.65;;;;;;;;;;5103402;28;20131;-77
2023/05/05 11:16:57;;;;;;;7.45;6.07;;;;;;;;;;5094342;28;20106;-78
2023/05/05 11:19:41;;;;;;;9.02;6.03;;;;;;;;;;5095282;28;20566;-78
2023/05/05 11:22:08;;;;;;;9.82;5.88;;;;;;;;;;5097551;28;20024;-78
2023/05/05 11:24:35;;;;;;;9.13;5.80;;;;;;;;;;5100012;28;20474;-78
2023/05/05 11:27:02;;;;;;;8.20;6.20;;;;;;;;;;5097722;28;20043;-78
2023/05/05 11:29:48;;;;;;;11.93;6.53;;;;;;;;;;5100587;28;20024;-78
2023/05/05 11:32:17;;;;;;;7.80;5.43;;;;;;;;;;5098083;28;20382;-78
2023/05/05 11:34:49;;;;;;;6.97;5.60;;;;;;;;;;5102136;28;20020;-79
2023/05/05 11:37:16;;;;;;;6.90;5.00;;;;;;;;;;5100756;28;20028;-79
2023/05/05 11:39:47;;;;;;;9.20;6.13;;;;;;;;;;5098446;28;20030;-79
2023/05/05 11:42:23;;;;;;;8.73;5.38;;;;;;;;;;5100184;28;20044;-79
2023/05/05 11:44:50;;;;;;;7.18;4.63;;;;;;;;;;5098896;28;20466;-79
2023/05/05 11:47:17;;;;;;;9.00;5.03;;;;;;;;;;5097776;28;20034;-79
2023/05/05 11:49:43;;;;;;;5.88;4.25;;;;;;;;;;5098707;28;20085;-78
2023/05/05 11:52:14;;;;;;;9.02;5.15;;;;;;;;;;5096878;28;20028;-78
2023/05/05 11:54:46;;;;;;;8.75;5.63;;;;;;;;;;5094369;28;20025;-78
2023/05/05 11:57:12;;;;;;;5.93;4.68;;;;;;;;;;5094496;28;20035;-77
2023/05/05 11:59:55;;;;;;;10.80;5.55;;;;;;;;;;5092055;28;20055;-78
2023/05/05 12:02:21;;;;;;;9.02;4.95;;;;;;;;;;5094459;28;20358;-78
2023/05/05 12:04:47;;;;;;;7.47;4.97;;;;;;;;;;5094319;28;20031;-78
2023/05/05 12:07:14;;;;;;;7.50;4.57;;;;;;;;;;5093930;28;20521;-78
2023/05/05 12:09:43;;;;;;;7.15;4.47;;;;;;;;;;5092995;28;20056;-78
2023/05/05 12:12:09;;;;;;;6.72;4.53;;;;;;;;;;5094877;28;20019;-78
2023/05/05 12:14:35;;;;;;;8.05;5.28;;;;;;;;;;5094293;28;20514;-78
2023/05/05 12:17:07;;;;;;;5.65;4.82;;;;;;;;;;5097700;28;20046;-78
2023/05/05 12:19:35;;;;;;;12.05;5.68;;;;;;;;;;5098444;28;20027;-78
2023/05/05 12:22:01;;;;;;;8.02;5.57;;;;;;;;;;5099392;28;20031;-78
2023/05/05 12:24:29;;;;;;;6.90;4.82;;;;;;;;;;5102470;28;20089;-78
2023/05/05 12:26:55;;;;;;;4.82;4.32;;;;;;;;;;5102959;28;20020;-78
2023/05/05 12:29:24;;;;;;;5.47;4.47;;;;;;;;;;5102378;28;20028;-78
2023/05/05 12:31:50;;;;;;;6.20;5.18;;;;;;;;;;5079077;28;20035;-78
2023/05/05 12:34:16;;;;;;;7.15;4.75;;;;;;;;;;5079739;28;20028;-79
2023/05/05 12:36:42;;;;;;;7.40;5.20;;;;;;;;;;5105037;28;20042;-79
2023/05/05 12:39:08;;;;;;;6.70;4.68;;;;;;;;;;5095425;28;20498;-78
2023/05/05 12:41:35;;;;;;;9.05;4.78;;;;;;;;;;5102008;28;20131;-79
2023/05/05 12:44:02;;;;;;;5.32;4.80;;;;;;;;;;5089595;28;20035;-79
2023/05/05 12:46:29;;;;;;;6.63;5.18;;;;;;;;;;5104290;28;20020;-79
2023/05/05 12:49:04;;;;;;;5.63;4.70;;;;;;;;;;5103915;28;20074;-79
2023/05/05 12:51:31;;;;;;;6.35;5.18;;;;;;;;;;5109085;28;21321;-79
2023/05/05 12:54:07;;;;;;;6.97;5.15;;;;;;;;;;5101249;28;20110;-79
2023/05/05 12:56:40;;;;;;;5.72;4.68;;;;;;;;;;5102760;28;20047;-79
2023/05/05 12:59:27;;;;;;;7.82;4.97;;;;;;;;;;5105718;28;20483;-79
2023/05/05 13:01:58;;;;;;;8.60;5.55;;;;;;;;;;5096786;28;20031;-79
2023/05/05 13:04:26;;;;;;;8.07;6.20;;;;;;;;;;5100376;28;20020;-79
2023/05/05 13:07:12;;;;;;;10.65;5.97;;;;;;;;;;5092890;28;20016;-79
2023/05/05 13:09:38;;;;;;;9.90;5.80;;;;;;;;;;5107554;28;20505;-79
2023/05/05 13:12:06;;;;;;;7.72;5.78;;;;;;;;;;5104985;28;20023;-79
2023/05/05 13:14:32;;;;;;;9.77;6.10;;;;;;;;;;5101196;28;20111;-77
2023/05/05 13:16:58;;;;;;;8.15;6.38;;;;;;;;;;5104069;28;20031;-77
2023/05/05 13:19:24;;;;;;;8.50;6.57;;;;;;;;;;5099795;28;20035;-77
2023/05/05 13:21:53;;;;;;;8.90;6.97;;;;;;;;;;5093849;28;20111;-77
2023/05/05 13:24:19;;;;;;;9.50;7.05;;;;;;;;;;5096225;28;20107;-77
2023/05/05 13:26:45;;;;;;;8.48;6.40;;;;;;;;;;5096586;28;20097;-77
2023/05/05 13:29:11;;;;;;;8.43;6.47;;;;;;;;;;5081667;28;20478;-77
2023/05/05 13:31:37;;;;;;;10.70;6.50;;;;;;;;;;5096673;28;20074;-77
2023/05/05 13:34:03;;;;;;;10.13;6.57;;;;;;;;;;5092782;28;20047;-77
2023/05/05 13:36:30;;;;;;;8.88;6.60;;;;;;;;;;5091462;28;20036;-77
2023/05/05 13:38:56;;;;;;;8.07;6.57;;;;;;;;;;5091258;28;20135;-77
2023/05/05 13:41:22;;;;;;;8.07;6.65;;;;;;;;;;5090876;28;20064;-77
2023/05/05 13:43:48;;;;;;;9.43;6.25;;;;;;;;;;5100107;28;20055;-77
2023/05/05 13:46:14;;;;;;;8.43;6.50;;;;;;;;;;5077455;28;20024;-77
2023/05/05 13:48:47;;;;;;;7.22;6.32;;;;;;;;;;5091106;28;20028;-77
2023/05/05 13:51:14;;;;;;;8.90;7.03;;;;;;;;;;5087602;28;20073;-77
2023/05/05 13:53:42;;;;;;;8.13;7.00;;;;;;;;;;5090853;28;20033;-77
2023/05/05 13:56:09;;;;;;;10.80;6.60;;;;;;;;;;5091243;28;20038;-77
2023/05/05 13:58:35;;;;;;;7.30;6.40;;;;;;;;;;5090434;28;20140;-77
2023/05/05 14:01:02;;;;;;;7.72;6.22;;;;;;;;;;5091934;28;20031;-78
2023/05/05 14:03:28;;;;;;;10.35;7.07;;;;;;;;;;5091111;28;20506;-78
2023/05/05 14:05:54;;;;;;;9.77;7.40;;;;;;;;;;5091150;28;20028;-78
2023/05/05 14:08:20;;;;;;;10.52;7.22;;;;;;;;;;5089708;28;20038;-78
2023/05/05 14:10:46;;;;;;;10.70;7.50;;;;;;;;;;5072412;28;20114;-78
2023/05/05 14:13:14;;;;;;;11.95;7.57;;;;;;;;;;5092585;28;20465;-78
2023/05/05 14:15:40;;;;;;;10.55;7.97;;;;;;;;;;5095063;28;20028;-77
2023/05/05 14:18:06;;;;;;;10.02;7.90;;;;;;;;;;5095107;28;20093;-77
2023/05/05 14:20:32;;;;;;;12.45;8.63;;;;;;;;;;5094890;28;20455;-77
2023/05/05 14:22:58;;;;;;;13.43;7.93;;;;;;;;;;5094978;28;20039;-78
2023/05/05 14:25:24;;;;;;;9.73;7.90;;;;;;;;;;5095695;28;20028;-77
2023/05/05 14:27:50;;;;;;;11.75;8.65;;;;;;;;;;5092604;28;20024;-77
2023/05/05 14:30:16;;;;;;;11.93;7.82;;;;;;;;;;5095139;28;20076;-78
2023/05/05 14:32:42;;;;;;;9.60;6.97;;;;;;;;;;5085090;28;20028;-78
2023/05/05 14:35:08;;;;;;;10.40;6.18;;;;;;;;;;5091042;28;20017;-78
2023/05/05 14:37:34;;;;;;;8.75;6.07;;;;;;;;;;5091433;28;20043;-78